Time;durP1;ratioP1;P1;durP2;ratioP2;P2;SDS_P1;SDS_P2;PMS_P1;PMS_P2;Temp;Humidity;BMP_temperature;BMP_pressure;BME280_temperature;BME280_humidity;BME280_pressure;Samples;Min_cycle;Max_cycle;Signal;HPM_P1;HPM_P2
2022/01/22 00:00:46;;;;;;;10.00;8.43;;;4.60;99.90;;;;;;5014897;28;20403;-55
2022/01/22 00:03:13;;;;;;;17.70;9.07;;;4.60;99.90;;;;;;5014723;28;20282;-57
2022/01/22 00:05:39;;;;;;;13.80;9.27;;;4.50;99.90;;;;;;5014445;28;20454;-55
2022/01/22 00:08:05;;;;;;;12.77;10.00;;;4.50;99.90;;;;;;5014813;28;20227;-55
2022/01/22 00:10:32;;;;;;;12.20;10.00;;;4.50;99.90;;;;;;5014472;28;20823;-57
2022/01/22 00:15:28;;;;;;;13.93;10.27;;;4.60;99.90;;;;;;5015220;28;20513;-56
2022/01/22 00:17:54;;;;;;;12.97;9.67;;;4.60;99.90;;;;;;5014318;28;20415;-57
2022/01/22 00:20:23;;;;;;;10.77;8.57;;;4.60;99.90;;;;;;5014035;28;20510;-56
2022/01/22 00:22:49;;;;;;;9.77;8.30;;;4.50;99.90;;;;;;5014458;28;20900;-57
2022/01/22 00:25:16;;;;;;;14.47;9.37;;;4.50;99.90;;;;;;5014048;28;20943;-57
2022/01/22 00:27:45;;;;;;;13.30;8.93;;;4.70;99.90;;;;;;5014218;28;20466;-58
2022/01/22 00:30:13;;;;;;;9.23;8.07;;;4.70;99.90;;;;;;5014424;28;20403;-56
2022/01/22 00:32:39;;;;;;;11.63;8.40;;;4.70;99.90;;;;;;5014167;28;20841;-57
2022/01/22 00:35:06;;;;;;;13.17;9.27;;;4.70;99.90;;;;;;5014100;28;20561;-58
2022/01/22 00:37:33;;;;;;;9.77;8.57;;;4.80;99.90;;;;;;5014709;28;20167;-57
2022/01/22 00:39:59;;;;;;;10.80;7.93;;;4.90;99.90;;;;;;5014093;28;20411;-58
2022/01/22 00:42:25;;;;;;;10.50;7.30;;;4.90;99.90;;;;;;5013763;28;20822;-56
2022/01/22 00:44:51;;;;;;;12.27;8.87;;;5.00;99.90;;;;;;5013990;28;20200;-58
2022/01/22 00:47:17;;;;;;;14.90;7.73;;;5.10;99.90;;;;;;5014107;28;20419;-57
2022/01/22 00:49:43;;;;;;;8.87;7.77;;;4.80;99.90;;;;;;5013731;28;20227;-56
2022/01/22 00:52:09;;;;;;;11.57;8.77;;;4.80;99.90;;;;;;5013643;28;20419;-56
2022/01/22 00:54:35;;;;;;;10.37;8.37;;;4.90;99.90;;;;;;5013576;28;20443;-58
2022/01/22 00:57:00;;;;;;;9.67;7.60;;;4.80;99.90;;;;;;5013710;28;20156;-55
2022/01/22 00:59:26;;;;;;;9.73;7.67;;;4.80;99.90;;;;;;5013939;28;20172;-57
2022/01/22 01:01:51;;;;;;;10.10;7.83;;;4.90;99.90;;;;;;5012833;28;20208;-54
2022/01/22 01:04:17;;;;;;;9.57;7.07;;;5.00;99.90;;;;;;5013669;28;20179;-57
2022/01/22 01:06:43;;;;;;;9.97;8.13;;;5.10;99.90;;;;;;5013837;28;20172;-57
2022/01/22 01:09:10;;;;;;;8.67;7.77;;;4.90;99.90;;;;;;5013604;28;20225;-55
2022/01/22 01:11:42;;;;;;;9.30;7.60;;;4.90;99.90;;;;;;5013524;28;20250;-58
2022/01/22 01:14:11;;;;;;;14.43;7.90;;;4.70;99.90;;;;;;5014010;28;20760;-58
2022/01/22 01:35:22;;;;;;;9.30;6.13;;;4.80;99.90;;;;;;4993721;28;20436;-57
2022/01/22 01:37:50;;;;;;;8.30;7.10;;;4.60;99.90;;;;;;4993648;28;20471;-56
2022/01/22 01:40:19;;;;;;;9.37;7.33;;;4.60;99.90;;;;;;4994913;28;20415;-58
2022/01/22 01:42:58;;;;;;;8.97;8.07;;;4.50;99.90;;;;;;5021947;28;20822;-58
2022/01/22 01:45:24;;;;;;;9.97;7.80;;;4.50;99.90;;;;;;5000715;28;20466;-56
2022/01/22 01:47:58;;;;;;;8.23;7.43;;;4.70;99.90;;;;;;5032914;28;20414;-50
2022/01/22 01:50:24;;;;;;;10.03;6.30;;;4.70;99.90;;;;;;5032873;28;20500;-57
2022/01/22 01:53:05;;;;;;;8.97;6.90;;;4.90;99.90;;;;;;5033153;28;20456;-58
2022/01/22 01:55:47;;;;;;;10.10;7.70;;;5.00;99.90;;;;;;5030259;23;21026;-61
2022/01/22 01:58:13;;;;;;;10.80;8.57;;;4.80;99.90;;;;;;5013312;28;20526;-62
2022/01/22 02:00:39;;;;;;;9.20;7.97;;;4.70;99.90;;;;;;5013008;28;20395;-61
2022/01/22 02:03:05;;;;;;;8.53;7.50;;;4.80;99.90;;;;;;5013202;28;20446;-62
2022/01/22 02:05:33;;;;;;;9.57;7.30;;;4.90;99.90;;;;;;5012913;28;20524;-61
2022/01/22 02:07:58;;;;;;;10.03;7.00;;;4.80;99.90;;;;;;5012929;28;20896;-61
2022/01/22 02:10:28;;;;;;;8.20;7.17;;;4.90;99.90;;;;;;5012920;28;20414;-62
2022/01/22 02:23:41;;;;;;;9.27;8.37;;;5.10;99.90;;;;;;5016923;28;20383;-61
2022/01/22 02:26:09;;;;;;;9.60;7.33;;;5.00;99.90;;;;;;5016356;28;20995;-61
2022/01/22 02:28:34;;;;;;;10.90;8.97;;;5.00;99.90;;;;;;5016731;28;20410;-61
2022/01/22 02:31:10;;;;;;;10.20;7.73;;;5.00;99.90;;;;;;5016407;28;20399;-61
2022/01/22 02:36:27;;;;;;;10.93;8.43;;;5.10;99.90;;;;;;5016487;28;20423;-61
2022/01/22 02:41:41;;;;;;;10.67;8.70;;;5.10;99.90;;;;;;5016113;28;20492;-60
2022/01/22 02:44:11;;;;;;;8.03;6.90;;;5.10;99.90;;;;;;5016405;28;20410;-61
2022/01/22 02:46:41;;;;;;;9.60;8.60;;;5.40;99.90;;;;;;5016030;28;20932;-61
2022/01/22 02:49:07;;;;;;;10.07;9.07;;;5.10;99.90;;;;;;5016808;28;20489;-61
2022/01/22 02:51:33;;;;;;;9.43;8.30;;;5.00;99.90;;;;;;5015809;28;20413;-62
2022/01/22 02:54:00;;;;;;;10.93;9.83;;;5.20;99.90;;;;;;5016007;28;20199;-61
2022/01/22 02:56:25;;;;;;;11.53;8.53;;;5.10;99.90;;;;;;5015489;28;20227;-60
2022/01/22 02:58:53;;;;;;;9.83;8.83;;;5.20;99.90;;;;;;5015879;28;20418;-61
2022/01/22 03:01:21;;;;;;;16.20;10.37;;;5.00;99.90;;;;;;5015850;28;20172;-61
2022/01/22 03:03:47;;;;;;;12.30;9.40;;;5.10;99.90;;;;;;5015727;28;20417;-61
2022/01/22 03:06:13;;;;;;;12.20;9.53;;;5.20;99.90;;;;;;5015497;28;20510;-60
2022/01/22 03:08:41;;;;;;;10.83;9.53;;;5.30;99.90;;;;;;5015831;28;20179;-61
2022/01/22 03:11:17;;;;;;;11.70;9.47;;;5.30;99.90;;;;;;5015330;28;20414;-61
2022/01/22 03:18:46;;;;;;;12.30;10.00;;;5.30;99.90;;;;;;5015806;28;20535;-62
2022/01/22 03:21:28;;;;;;;10.03;9.00;;;5.10;99.90;;;;;;5015543;28;20392;-59
2022/01/22 03:29:32;;;;;;;12.03;9.77;;;5.00;99.90;;;;;;5015839;28;20803;-61
2022/01/22 03:31:58;;;;;;;9.73;8.40;;;5.00;99.90;;;;;;5015502;28;20445;-61
2022/01/22 03:34:24;;;;;;;11.70;8.70;;;5.20;99.90;;;;;;5015350;28;20872;-60
2022/01/22 03:36:49;;;;;;;11.13;9.50;;;5.10;99.90;;;;;;5014816;28;20199;-61
2022/01/22 03:39:15;;;;;;;9.13;8.23;;;5.10;99.90;;;;;;5015316;28;20176;-61
2022/01/22 03:41:41;;;;;;;14.70;8.47;;;5.00;99.90;;;;;;5014715;28;20275;-61
2022/01/22 03:44:08;;;;;;;8.77;7.87;;;5.00;99.90;;;;;;5015531;28;20168;-61
2022/01/22 03:46:36;;;;;;;14.30;10.30;;;5.10;99.90;;;;;;5014782;28;20255;-61
2022/01/22 03:49:02;;;;;;;10.27;9.10;;;5.10;99.90;;;;;;5015034;28;20874;-62
2022/01/22 03:51:28;;;;;;;11.70;9.10;;;5.00;99.90;;;;;;5014611;28;20407;-61
2022/01/22 03:53:53;;;;;;;10.83;9.40;;;5.00;99.90;;;;;;5015015;28;20422;-60
2022/01/22 03:56:20;;;;;;;10.27;9.17;;;4.90;99.90;;;;;;5014304;28;20286;-60
2022/01/22 03:58:45;;;;;;;8.70;7.80;;;4.90;99.90;;;;;;5014937;28;20168;-61
2022/01/22 04:03:59;;;;;;;10.73;9.00;;;5.10;99.90;;;;;;5015216;28;20155;-60
2022/01/22 04:09:06;;;;;;;10.83;9.70;;;5.00;99.90;;;;;;5014497;28;20379;-61
2022/01/22 04:11:35;;;;;;;9.67;8.50;;;5.10;99.90;;;;;;5014168;28;20425;-57
2022/01/22 04:14:03;;;;;;;11.60;8.43;;;5.10;99.90;;;;;;5014567;28;20407;-61
2022/01/22 04:16:31;;;;;;;12.77;9.47;;;5.00;99.90;;;;;;5014481;28;20828;-61
2022/01/22 04:27:15;;;;;;;12.30;9.27;;;5.20;99.90;;;;;;5014140;28;20615;-61
2022/01/22 04:29:41;;;;;;;12.13;9.80;;;5.10;99.90;;;;;;5014115;28;20414;-61
2022/01/22 04:32:08;;;;;;;12.43;10.27;;;5.10;99.90;;;;;;5014351;28;20411;-60
2022/01/22 04:34:34;;;;;;;11.77;10.27;;;5.10;99.90;;;;;;4998608;28;20424;-61
2022/01/22 04:36:59;;;;;;;12.97;10.30;;;5.30;99.90;;;;;;4994039;28;20447;-61
2022/01/22 04:39:27;;;;;;;11.50;9.60;;;5.30;99.90;;;;;;4994715;28;20267;-61
2022/01/22 04:41:55;;;;;;;11.10;10.00;;;5.20;99.90;;;;;;4993981;28;20212;-61
2022/01/22 04:44:24;;;;;;;11.07;9.80;;;5.00;99.90;;;;;;4994659;28;20423;-61
2022/01/22 04:47:01;;;;;;;15.20;9.67;;;4.80;99.90;;;;;;4994141;28;20621;-61
2022/01/22 04:55:02;;;;;;;12.33;9.50;;;5.00;99.90;;;;;;4994597;28;20450;-59
2022/01/22 04:57:30;;;;;;;18.47;11.13;;;4.80;99.90;;;;;;5012935;28;20419;-59
2022/01/22 04:59:56;;;;;;;9.47;8.40;;;4.80;99.90;;;;;;5013549;28;20403;-61
2022/01/22 05:02:22;;;;;;;11.53;9.83;;;4.90;99.90;;;;;;5014113;28;20443;-62
2022/01/22 05:04:48;;;;;;;11.20;9.77;;;5.00;99.90;;;;;;5013530;28;20410;-60
2022/01/22 05:07:14;;;;;;;10.70;9.60;;;5.00;99.90;;;;;;5013224;28;20473;-56
2022/01/22 05:09:40;;;;;;;13.20;10.60;;;5.00;99.90;;;;;;5013723;28;20489;-59
2022/01/22 05:12:07;;;;;;;12.50;10.03;;;5.10;99.90;;;;;;5013208;28;20178;-61
2022/01/22 05:14:33;;;;;;;13.77;10.13;;;5.10;99.90;;;;;;5013575;28;20251;-60
2022/01/22 05:17:02;;;;;;;12.07;9.30;;;5.10;99.90;;;;;;5011906;28;20435;-61
2022/01/22 05:19:43;;;;;;;10.60;9.30;;;5.10;99.90;;;;;;4993841;28;20852;-61
2022/01/22 05:22:36;;;;;;;11.90;9.67;;;5.10;99.90;;;;;;4993489;28;20455;-60
2022/01/22 05:25:06;;;;;;;9.90;8.90;;;5.20;99.90;;;;;;4993841;28;20491;-61
2022/01/22 05:32:48;;;;;;;13.83;10.03;;;5.40;99.90;;;;;;4975100;28;20169;-60
2022/01/22 05:37:58;;;;;;;10.03;9.13;;;5.20;99.90;;;;;;4974270;28;20428;-61
2022/01/22 05:40:24;;;;;;;12.87;9.90;;;5.20;99.90;;;;;;4972814;28;20436;-61
2022/01/22 05:42:50;;;;;;;14.93;10.40;;;5.20;99.90;;;;;;4973760;28;20441;-60
2022/01/22 05:45:15;;;;;;;15.53;9.90;;;5.20;99.90;;;;;;4991176;28;20429;-59
2022/01/22 05:47:41;;;;;;;17.30;11.37;;;5.30;99.90;;;;;;4992866;28;20176;-60
2022/01/22 05:50:13;;;;;;;13.60;10.10;;;5.10;99.90;;;;;;4989824;28;20552;-58
2022/01/22 05:52:53;;;;;;;11.27;9.20;;;5.30;99.90;;;;;;5008292;28;20176;-60
2022/01/22 05:59:35;;;;;;;12.33;9.50;;;5.30;99.90;;;;;;5005891;28;20468;-57
2022/01/22 06:00:54;;;;;;;9.10;8.00;;;5.10;99.90;;;;;;4986599;28;20438;-58
2022/01/22 06:03:20;;;;;;;15.93;10.27;;;5.20;99.90;;;;;;4986782;28;20948;-57
2022/01/22 06:05:46;;;;;;;13.50;10.90;;;5.40;99.90;;;;;;4986542;28;20208;-60
2022/01/22 06:08:15;;;;;;;11.17;9.33;;;5.50;99.90;;;;;;4987048;28;20552;-59
2022/01/22 06:10:42;;;;;;;12.20;9.50;;;5.40;99.90;;;;;;4986841;28;20642;-57
2022/01/22 06:13:17;;;;;;;11.70;10.50;;;5.30;99.90;;;;;;4986667;28;20420;-59
2022/01/22 06:15:44;;;;;;;10.53;8.90;;;5.30;99.90;;;;;;5000270;28;20442;-58
2022/01/22 06:18:09;;;;;;;11.23;10.10;;;5.30;99.90;;;;;;5006071;28;21566;-61
2022/01/22 06:20:35;;;;;;;13.27;10.80;;;5.40;99.90;;;;;;5005857;28;20415;-60
2022/01/22 06:23:02;;;;;;;11.57;9.90;;;5.60;99.90;;;;;;4994658;28;20199;-58
2022/01/22 06:25:28;;;;;;;11.10;9.37;;;5.60;99.90;;;;;;5003379;28;20204;-59
2022/01/22 06:27:53;;;;;;;10.77;9.60;;;5.40;99.90;;;;;;5001680;28;20414;-60
2022/01/22 06:30:20;;;;;;;12.87;9.93;;;5.20;99.90;;;;;;4998252;28;20457;-62
2022/01/22 06:32:46;;;;;;;11.37;9.30;;;5.20;99.90;;;;;;4995975;28;20169;-60
2022/01/22 06:35:12;;;;;;;10.47;9.37;;;5.40;99.90;;;;;;4995923;28;20423;-60
2022/01/22 06:37:38;;;;;;;11.77;9.97;;;5.40;99.90;;;;;;4995687;28;20415;-61
2022/01/22 06:42:33;;;;;;;10.30;9.20;;;5.40;99.90;;;;;;4995294;28;20193;-59
2022/01/22 06:45:00;;;;;;;12.40;10.80;;;5.30;99.90;;;;;;4995546;28;20413;-61
2022/01/22 06:47:27;;;;;;;11.47;9.27;;;5.30;99.90;;;;;;4995549;28;20400;-61
2022/01/22 06:49:53;;;;;;;11.00;8.77;;;5.30;99.90;;;;;;4995200;28;20435;-59
2022/01/22 06:52:19;;;;;;;10.63;9.23;;;5.20;99.90;;;;;;4994968;28;20446;-61
2022/01/22 06:54:45;;;;;;;11.57;8.90;;;5.20;99.90;;;;;;4995207;28;20630;-61
2022/01/22 06:57:12;;;;;;;11.13;9.07;;;5.10;99.90;;;;;;4974645;28;1102958;-61
2022/01/22 06:59:38;;;;;;;10.13;8.83;;;5.20;99.90;;;;;;5016032;28;20211;-61
2022/01/22 07:02:04;;;;;;;14.23;10.23;;;5.20;99.90;;;;;;5015734;28;20439;-61
2022/01/22 07:04:31;;;;;;;12.83;10.00;;;5.30;99.90;;;;;;5015978;28;20403;-61
2022/01/22 07:06:57;;;;;;;11.60;9.07;;;5.40;99.90;;;;;;5015618;28;20530;-60
2022/01/22 07:09:23;;;;;;;15.00;10.13;;;5.40;99.90;;;;;;5015893;28;20769;-61
2022/01/22 07:11:49;;;;;;;11.33;9.00;;;5.40;99.90;;;;;;5015653;28;20407;-61
2022/01/22 07:14:16;;;;;;;18.00;9.90;;;5.40;99.90;;;;;;5016073;28;20468;-61
2022/01/22 07:16:41;;;;;;;12.93;9.63;;;5.40;99.90;;;;;;5015395;28;20453;-60
2022/01/22 07:19:08;;;;;;;13.40;9.50;;;5.40;99.90;;;;;;5015688;28;20412;-59
2022/01/22 07:21:36;;;;;;;11.10;9.53;;;5.40;99.90;;;;;;5015309;28;20183;-59
2022/01/22 07:26:27;;;;;;;11.80;9.70;;;5.30;99.90;;;;;;5006524;28;20443;-60
2022/01/22 07:28:52;;;;;;;14.77;10.20;;;5.20;99.90;;;;;;5015484;28;20176;-60
2022/01/22 07:31:20;;;;;;;13.17;10.37;;;5.30;99.90;;;;;;5015133;28;20172;-60
2022/01/22 07:33:47;;;;;;;13.97;11.03;;;5.10;99.90;;;;;;5015084;28;20176;-57
2022/01/22 07:36:13;;;;;;;15.10;9.90;;;4.90;99.90;;;;;;5015042;28;20433;-59
2022/01/22 07:38:39;;;;;;;13.73;10.27;;;5.00;99.90;;;;;;5015617;28;20407;-60
2022/01/22 07:41:07;;;;;;;10.60;9.50;;;5.00;99.90;;;;;;5015257;28;20609;-61
2022/01/22 07:43:33;;;;;;;9.47;8.47;;;5.30;99.90;;;;;;4984836;28;20872;-61
2022/01/22 07:45:59;;;;;;;10.37;9.33;;;5.30;99.90;;;;;;4995301;28;20439;-61
2022/01/22 07:48:24;;;;;;;10.73;8.70;;;5.30;99.90;;;;;;4995605;28;20416;-60
2022/01/22 07:50:50;;;;;;;10.87;9.00;;;5.50;99.90;;;;;;4995076;28;20179;-60
2022/01/22 07:53:16;;;;;;;11.97;9.50;;;5.40;99.90;;;;;;4995765;28;20193;-61
2022/01/22 07:55:41;;;;;;;12.40;9.53;;;5.60;99.90;;;;;;5025128;23;20220;-51
2022/01/22 07:58:07;;;;;;;12.03;9.63;;;5.50;99.90;;;;;;5025070;28;20179;-54
2022/01/22 08:00:32;;;;;;;11.23;9.97;;;5.30;99.90;;;;;;5014692;28;20744;-56
2022/01/22 08:02:58;;;;;;;13.77;10.23;;;5.20;99.90;;;;;;5014798;28;20191;-54
2022/01/22 08:05:24;;;;;;;13.50;9.73;;;5.20;99.90;;;;;;5014892;28;20251;-57
2022/01/22 08:07:49;;;;;;;13.30;10.07;;;5.20;99.90;;;;;;5014274;28;20184;-55
2022/01/22 08:10:16;;;;;;;14.97;10.60;;;5.20;99.90;;;;;;5014471;28;20164;-56
2022/01/22 08:12:43;;;;;;;16.43;10.93;;;5.30;99.90;;;;;;5014169;28;20176;-53
2022/01/22 08:15:12;;;;;;;14.40;10.50;;;5.40;99.90;;;;;;5014667;28;20908;-58
2022/01/22 08:17:38;;;;;;;12.80;10.00;;;5.20;99.90;;;;;;5014249;28;20450;-55
2022/01/22 08:20:04;;;;;;;12.30;10.70;;;5.00;99.90;;;;;;5014516;28;20407;-58
2022/01/22 08:22:30;;;;;;;13.80;10.40;;;5.10;99.90;;;;;;5013879;28;21030;-58
2022/01/22 08:24:58;;;;;;;15.87;11.97;;;5.10;99.90;;;;;;5014800;28;20399;-55
2022/01/22 08:29:52;;;;;;;14.00;11.60;;;4.90;99.90;;;;;;5034324;28;20410;-56
2022/01/22 08:37:28;;;;;;;14.13;11.33;;;5.10;99.90;;;;;;5033835;28;20206;-55
2022/01/22 08:39:54;;;;;;;13.23;11.10;;;5.20;99.90;;;;;;5033648;28;20406;-57
2022/01/22 08:42:21;;;;;;;13.50;11.13;;;5.00;99.90;;;;;;5033445;28;20248;-58
2022/01/22 08:44:47;;;;;;;15.70;11.50;;;5.10;99.90;;;;;;5034070;28;20222;-56
2022/01/22 08:47:14;;;;;;;12.47;10.57;;;5.20;99.90;;;;;;5033688;28;20461;-56
2022/01/22 08:49:39;;;;;;;14.17;11.43;;;5.30;99.90;;;;;;5034077;28;20437;-57
2022/01/22 08:52:14;;;;;;;13.50;11.00;;;5.30;99.90;;;;;;5033530;28;20816;-56
2022/01/22 08:54:41;;;;;;;13.03;11.53;;;5.40;99.90;;;;;;5033828;28;20238;-58
2022/01/22 08:57:06;;;;;;;16.10;10.33;;;5.40;99.90;;;;;;5033166;28;20512;-57
2022/01/22 08:59:32;;;;;;;13.33;11.93;;;5.40;99.90;;;;;;5033986;28;20774;-54
2022/01/22 09:01:59;;;;;;;18.43;10.90;;;5.40;99.90;;;;;;5033613;28;20680;-57
2022/01/22 09:04:25;;;;;;;16.43;12.90;;;5.50;99.90;;;;;;5033287;28;20160;-55
2022/01/22 09:06:50;;;;;;;20.60;12.87;;;5.50;99.90;;;;;;5033092;28;20410;-58
2022/01/22 09:09:16;;;;;;;14.73;12.87;;;5.60;99.90;;;;;;5033297;28;20474;-55
2022/01/22 09:11:44;;;;;;;14.80;11.93;;;5.60;99.90;;;;;;5033786;28;20182;-55
2022/01/22 09:14:12;;;;;;;16.47;12.30;;;5.80;99.90;;;;;;5033074;28;20656;-57
2022/01/22 09:16:38;;;;;;;14.30;11.33;;;5.80;99.90;;;;;;5033105;28;20418;-58
2022/01/22 09:19:06;;;;;;;14.40;11.43;;;5.70;99.90;;;;;;5033159;28;20413;-57
2022/01/22 09:21:44;;;;;;;15.10;11.70;;;5.70;99.90;;;;;;5032469;28;20779;-57
2022/01/22 09:24:12;;;;;;;17.07;13.27;;;5.70;99.90;;;;;;5032716;28;20454;-55
2022/01/22 09:26:38;;;;;;;23.50;14.57;;;5.80;99.90;;;;;;5032711;28;20430;-48
2022/01/22 09:29:04;;;;;;;18.33;12.93;;;5.90;99.90;;;;;;5033036;28;20410;-56
2022/01/22 09:31:32;;;;;;;20.47;15.50;;;5.90;99.90;;;;;;5033006;28;20898;-56
2022/01/22 09:33:59;;;;;;;17.17;12.57;;;5.90;99.90;;;;;;5033680;28;20429;-54
2022/01/22 09:36:27;;;;;;;15.07;11.47;;;5.90;99.90;;;;;;5032553;28;20424;-51
2022/01/22 09:38:53;;;;;;;18.80;12.47;;;6.00;99.90;;;;;;5033080;28;20453;-52
2022/01/22 09:41:20;;;;;;;12.57;11.27;;;5.90;99.90;;;;;;5032597;28;20394;-55
2022/01/22 09:43:46;;;;;;;13.40;10.20;;;6.00;99.90;;;;;;5015007;28;20419;-56
2022/01/22 09:46:12;;;;;;;13.37;11.10;;;6.00;99.90;;;;;;5032855;28;20417;-54
2022/01/22 09:48:44;;;;;;;11.27;10.07;;;6.10;99.90;;;;;;5032902;28;20205;-53
2022/01/22 09:51:11;;;;;;;13.57;12.17;;;6.10;99.90;;;;;;5032559;28;20491;-55
2022/01/22 09:53:39;;;;;;;14.67;10.43;;;6.20;99.90;;;;;;5032998;28;20559;-56
2022/01/22 09:56:05;;;;;;;13.93;12.23;;;6.10;99.90;;;;;;5032754;28;20446;-56
2022/01/22 09:58:31;;;;;;;13.90;11.57;;;6.20;99.90;;;;;;5032796;28;20552;-55
2022/01/22 10:01:25;;;;;;;22.50;11.70;;;6.30;99.90;;;;;;5032799;28;20955;-57
2022/01/22 10:03:52;;;;;;;14.43;11.40;;;6.20;99.90;;;;;;5033019;28;20175;-54
2022/01/22 10:06:26;;;;;;;12.90;10.83;;;6.20;99.90;;;;;;5032456;28;20430;-54
2022/01/22 10:09:04;;;;;;;11.60;10.40;;;6.30;99.90;;;;;;5032550;28;20395;-57
2022/01/22 10:11:29;;;;;;;11.80;10.10;;;6.30;99.90;;;;;;5033158;28;20855;-58
2022/01/22 10:13:59;;;;;;;14.40;10.50;;;6.40;99.90;;;;;;5033049;28;20420;-55
2022/01/22 10:16:26;;;;;;;12.83;10.60;;;6.40;99.90;;;;;;5032527;28;20653;-55
2022/01/22 10:19:10;;;;;;;11.50;9.77;;;6.30;99.90;;;;;;5032802;28;20394;-57
2022/01/22 10:21:38;;;;;;;15.13;11.60;;;6.40;99.90;;;;;;5032439;28;20404;-56
2022/01/22 10:24:39;;;;;;;15.63;10.40;;;6.40;99.90;;;;;;5032464;28;20394;-53
2022/01/22 10:29:56;;;;;;;13.73;10.70;;;6.40;99.90;;;;;;5032926;28;20386;-55
2022/01/22 10:33:06;;;;;;;11.90;9.17;;;6.50;99.90;;;;;;5033147;28;20704;-56
2022/01/22 10:35:24;;;;;;;11.80;10.10;;;6.60;99.90;;;;;;5031951;28;20414;-55
2022/01/22 10:38:02;;;;;;;14.53;11.00;;;6.30;99.90;;;;;;5035906;28;20940;-57
2022/01/22 10:40:30;;;;;;;12.47;10.80;;;6.30;99.90;;;;;;5036470;28;20417;-57
2022/01/22 10:43:21;;;;;;;9.47;8.57;;;6.30;99.90;;;;;;5035942;28;20813;-56
2022/01/22 10:46:06;;;;;;;10.17;9.07;;;6.40;99.90;;;;;;5036130;28;20434;-53
2022/01/22 10:48:31;;;;;;;14.30;9.90;;;6.40;99.90;;;;;;5036147;28;20441;-55
2022/01/22 10:51:02;;;;;;;9.93;8.70;;;6.40;99.90;;;;;;5024046;28;20425;-55
2022/01/22 10:53:43;;;;;;;11.37;8.70;;;6.40;99.90;;;;;;5035514;28;20746;-54
2022/01/22 10:56:10;;;;;;;13.27;10.00;;;6.10;99.90;;;;;;5035480;28;20458;-57
2022/01/22 10:58:57;;;;;;;12.20;9.93;;;6.10;99.90;;;;;;5035786;28;20785;-57
2022/01/22 11:01:25;;;;;;;11.73;9.20;;;6.20;99.90;;;;;;5035622;28;20392;-56
2022/01/22 11:04:06;;;;;;;12.13;9.83;;;6.40;99.90;;;;;;5035898;28;20465;-52
2022/01/22 11:06:31;;;;;;;11.30;10.10;;;6.20;99.90;;;;;;5035798;28;20752;-55
2022/01/22 11:08:57;;;;;;;10.20;8.90;;;6.40;99.90;;;;;;5029521;28;20863;-56
2022/01/22 11:11:23;;;;;;;10.03;8.70;;;6.50;99.90;;;;;;5018735;28;20232;-57
2022/01/22 11:13:49;;;;;;;9.90;8.97;;;6.50;99.90;;;;;;5015636;28;20192;-55
2022/01/22 11:16:16;;;;;;;8.90;8.00;;;6.40;99.90;;;;;;5015557;28;20431;-54
2022/01/22 11:18:44;;;;;;;9.63;7.90;;;6.50;99.90;;;;;;5015624;28;20160;-57
2022/01/22 11:21:11;;;;;;;12.03;9.70;;;6.50;99.90;;;;;;5028064;28;20419;-53
2022/01/22 11:23:37;;;;;;;10.30;9.20;;;6.50;99.90;;;;;;5034917;28;20488;-55
2022/01/22 11:26:03;;;;;;;10.17;9.17;;;6.30;99.90;;;;;;5035175;28;20899;-55
2022/01/22 11:28:29;;;;;;;11.90;9.53;;;6.30;99.90;;;;;;5034773;28;20641;-56
2022/01/22 11:30:57;;;;;;;9.73;8.73;;;6.10;99.90;;;;;;5035135;28;20410;-55
2022/01/22 11:33:24;;;;;;;9.77;8.50;;;6.30;99.90;;;;;;5035056;28;20254;-57
2022/01/22 11:35:53;;;;;;;11.97;10.57;;;6.50;99.90;;;;;;5034835;28;20954;-54
2022/01/22 11:38:40;;;;;;;11.47;9.37;;;6.20;99.90;;;;;;5034844;28;20758;-54
2022/01/22 11:41:13;;;;;;;11.30;9.73;;;6.10;99.90;;;;;;5034965;28;20759;-56
2022/01/22 11:44:32;;;;;;;10.60;9.50;;;6.20;99.90;;;;;;5034692;28;20446;-53
2022/01/22 11:46:58;;;;;;;10.80;8.53;;;6.50;99.90;;;;;;5031164;28;20434;-54
2022/01/22 11:49:29;;;;;;;13.10;8.63;;;6.60;99.90;;;;;;5034846;28;20390;-55
2022/01/22 11:52:13;;;;;;;9.73;8.47;;;6.50;99.90;;;;;;5034354;28;20422;-56
2022/01/22 11:54:52;;;;;;;11.20;9.10;;;6.50;99.90;;;;;;5034733;28;20406;-56
2022/01/22 11:57:18;;;;;;;11.83;9.63;;;6.70;99.90;;;;;;5033872;28;21093;-57
2022/01/22 11:59:46;;;;;;;14.23;10.10;;;6.70;99.90;;;;;;5033955;28;20411;-55
2022/01/22 12:02:16;;;;;;;10.20;9.20;;;6.50;99.90;;;;;;5034264;28;20487;-54
2022/01/22 12:04:42;;;;;;;8.97;7.80;;;6.60;99.90;;;;;;5034587;28;20404;-54
2022/01/22 12:07:07;;;;;;;12.93;9.00;;;6.60;99.90;;;;;;5034070;28;20421;-57
2022/01/22 12:15:22;;;;;;;10.97;9.80;;;6.90;99.90;;;;;;5034747;28;20452;-55
2022/01/22 12:17:53;;;;;;;8.40;7.50;;;7.10;99.90;;;;;;5034264;28;20430;-56
2022/01/22 12:23:09;;;;;;;9.53;8.50;;;6.80;99.90;;;;;;5033883;28;20946;-57
2022/01/22 12:25:34;;;;;;;7.53;6.87;;;7.00;99.90;;;;;;5034042;28;20426;-56
2022/01/22 12:28:01;;;;;;;6.73;6.13;;;6.90;99.90;;;;;;5033689;28;20513;-57
2022/01/22 12:30:36;;;;;;;8.27;7.40;;;7.00;99.90;;;;;;5034140;28;20165;-57
2022/01/22 12:33:06;;;;;;;7.43;6.33;;;6.70;99.90;;;;;;5034267;28;20406;-56
2022/01/22 12:35:36;;;;;;;8.10;6.73;;;6.70;99.90;;;;;;5034114;28;20422;-54
2022/01/22 12:38:29;;;;;;;7.70;6.97;;;6.70;99.90;;;;;;5033649;28;20438;-53
2022/01/22 12:41:31;;;;;;;7.67;6.87;;;6.90;99.90;;;;;;5025954;28;20426;-57
2022/01/22 12:44:26;;;;;;;8.90;6.50;;;6.90;99.90;;;;;;5033674;28;20482;-57
2022/01/22 12:46:54;;;;;;;8.40;6.10;;;7.00;99.90;;;;;;5033856;28;20427;-54
2022/01/22 12:49:21;;;;;;;9.27;7.10;;;6.80;99.90;;;;;;5033685;28;20403;-54
2022/01/22 12:52:13;;;;;;;9.70;5.97;;;6.90;99.90;;;;;;5033404;28;20434;-56
2022/01/22 12:54:45;;;;;;;9.40;6.43;;;6.60;99.90;;;;;;5015777;28;20408;-56
2022/01/22 12:57:14;;;;;;;8.47;6.30;;;6.60;99.90;;;;;;5032921;28;20464;-56
2022/01/22 12:59:49;;;;;;;7.40;5.80;;;6.60;99.90;;;;;;5032712;28;20434;-54
2022/01/22 13:02:15;;;;;;;8.37;6.67;;;6.50;99.90;;;;;;5033654;28;20450;-54
2022/01/22 13:04:40;;;;;;;8.00;7.10;;;6.40;99.90;;;;;;5033829;28;20965;-56
2022/01/22 13:07:12;;;;;;;8.03;7.23;;;6.60;99.90;;;;;;5033159;28;20185;-54
2022/01/22 13:09:48;;;;;;;9.27;7.97;;;6.60;99.90;;;;;;5033546;28;20250;-54
2022/01/22 13:12:15;;;;;;;8.43;7.63;;;6.60;99.90;;;;;;5033405;28;20411;-53
2022/01/22 13:14:42;;;;;;;10.27;7.30;;;6.50;99.90;;;;;;5033559;28;20440;-57
2022/01/22 13:17:12;;;;;;;9.03;8.13;;;6.60;99.90;;;;;;5032730;28;20434;-57
2022/01/22 13:19:39;;;;;;;8.23;7.43;;;6.60;99.90;;;;;;5033383;28;20494;-55
2022/01/22 13:22:06;;;;;;;8.93;7.40;;;6.60;99.90;;;;;;5033116;28;20449;-57
2022/01/22 13:24:32;;;;;;;8.70;7.80;;;6.60;99.90;;;;;;5033231;28;20456;-57
2022/01/22 13:27:03;;;;;;;7.73;6.93;;;6.50;99.90;;;;;;5033117;28;20486;-57
2022/01/22 13:29:31;;;;;;;7.77;7.07;;;6.40;99.90;;;;;;5033045;28;20388;-56
2022/01/22 13:32:13;;;;;;;9.90;8.50;;;6.40;99.90;;;;;;5033228;28;20428;-57
2022/01/22 13:35:14;;;;;;;9.37;8.37;;;6.50;99.90;;;;;;5033306;28;20436;-54
2022/01/22 13:38:25;;;;;;;9.60;8.23;;;6.30;99.90;;;;;;5032860;28;20432;-50
2022/01/22 13:49:00;;;;;;;12.40;10.33;;;6.70;99.90;;;;;;5033988;28;20463;-57
2022/01/22 13:51:27;;;;;;;20.60;15.27;;;6.60;99.90;;;;;;5033598;28;20470;-53
2022/01/22 13:53:57;;;;;;;13.60;10.30;;;6.60;99.90;;;;;;5033286;28;20783;-57
2022/01/22 13:56:49;;;;;;;10.90;8.80;;;6.60;99.90;;;;;;5057795;22;20486;-59
2022/01/22 13:59:16;;;;;;;11.60;9.50;;;6.50;99.90;;;;;;5006247;28;20451;-60
2022/01/22 14:02:05;;;;;;;10.88;9.88;;;6.50;99.90;;;;;;5010900;28;20489;-60
2022/01/22 14:04:44;;;;;;;11.57;10.37;;;6.60;99.90;;;;;;5012635;28;20180;-61
2022/01/22 14:07:25;;;;;;;9.53;8.53;;;6.70;99.90;;;;;;5011645;28;20551;-60
2022/01/22 14:09:53;;;;;;;10.07;9.07;;;6.70;99.90;;;;;;5014809;28;20404;-60
2022/01/22 14:12:19;;;;;;;10.37;8.97;;;6.80;99.90;;;;;;5016262;28;20403;-60
2022/01/22 14:15:07;;;;;;;11.80;9.90;;;6.70;99.90;;;;;;4999384;28;20935;-60
2022/01/22 14:17:41;;;;;;;12.57;10.70;;;6.80;99.90;;;;;;5016751;28;20197;-58
2022/01/22 14:20:11;;;;;;;16.00;11.33;;;6.70;99.90;;;;;;5016746;28;20387;-60
2022/01/22 14:22:58;;;;;;;11.20;8.50;;;6.70;99.90;;;;;;5016530;28;20451;-60
2022/01/22 14:25:25;;;;;;;15.57;10.27;;;6.70;99.90;;;;;;5016545;28;20399;-60
2022/01/22 14:28:12;;;;;;;11.23;9.10;;;6.60;99.90;;;;;;4991863;28;20445;-57
2022/01/22 14:30:46;;;;;;;11.07;10.03;;;6.50;99.90;;;;;;4977651;28;20900;-60
2022/01/22 14:33:15;;;;;;;15.10;10.10;;;6.40;99.90;;;;;;4959977;28;20474;-60
2022/01/22 14:35:42;;;;;;;13.40;10.63;;;6.40;99.90;;;;;;4959917;28;20436;-58
2022/01/22 14:38:32;;;;;;;11.73;9.30;;;6.50;99.90;;;;;;4977072;28;20505;-60
2022/01/22 14:44:26;;;;;;;12.53;10.50;;;6.40;99.90;;;;;;4977535;28;20766;-59
2022/01/22 14:47:02;;;;;;;12.20;9.13;;;6.30;99.90;;;;;;4977155;28;20937;-60
2022/01/22 14:49:45;;;;;;;11.60;9.50;;;6.40;99.90;;;;;;4977004;28;20483;-60
2022/01/22 14:52:13;;;;;;;14.67;10.23;;;6.40;99.90;;;;;;4977015;28;20385;-59